Time;durP1;ratioP1;P1;durP2;ratioP2;P2;SDS_P1;SDS_P2;PMS_P1;PMS_P2;Temp;Humidity;BMP_temperature;BMP_pressure;BME280_temperature;BME280_humidity;BME280_pressure;Samples;Min_cycle;Max_cycle;Signal;HPM_P1;HPM_P2
2021/12/05 00:22:01;;;;;;;;;;;;;;;;;;;;;
2021/12/05 00:24:09;;;;;;;11.70;2.95;;;;;;;18.66;47.58;101941.09;4207030;28;20021;-52
2021/12/05 00:26:16;;;;;;;8.85;2.50;;;;;;;18.70;47.64;101947.88;4199172;28;20113;-54
2021/12/05 00:32:52;;;;;;;7.25;2.45;;;;;;;18.75;47.39;101944.38;4199510;28;20081;-53
2021/12/05 00:44:54;;;;;;;8.82;2.97;;;;;;;18.84;47.26;101950.41;4199352;28;20082;-52
2021/12/05 00:53:16;;;;;;;12.25;2.50;;;;;;;18.71;47.29;101935.69;4199456;28;20422;-55
2021/12/05 01:04:37;;;;;;;6.43;2.63;;;;;;;18.90;47.15;101971.59;4186741;28;20086;-51
2021/12/05 01:13:31;;;;;;;9.38;2.50;;;;;;;18.94;47.27;101983.91;4188779;28;20021;-54
2021/12/05 01:15:32;;;;;;;5.97;2.38;;;;;;;18.93;47.26;101988.63;4195824;28;20037;-52
2021/12/05 01:20:02;;;;;;;9.15;2.35;;;;;;;18.94;47.00;101983.91;4189002;28;20110;-53
2021/12/05 01:22:10;;;;;;;6.90;2.22;;;;;;;18.99;47.22;102009.00;4187516;28;20070;-55
2021/12/05 01:26:28;;;;;;;4.72;2.55;;;;;;;19.03;47.12;102010.19;4186490;28;20033;-52
2021/12/05 01:44:15;;;;;;;5.05;2.10;;;;;;;19.10;46.74;102044.19;4182743;28;20055;-52
2021/12/05 01:57:29;;;;;;;6.03;2.15;;;;;;;19.16;46.52;102068.22;4181369;28;20021;-53
2021/12/05 01:59:38;;;;;;;;;;;;;;;;;;;;;
2021/12/05 02:10:58;;;;;;;4.35;2.28;;;;;;;19.17;46.27;102103.19;4182589;28;20021;-50
2021/12/05 02:31:47;;;;;;;5.53;2.33;;;;;;;19.04;46.14;102061.81;4191430;28;20442;-53
2021/12/05 02:33:58;;;;;;;4.32;2.53;;;;;;;19.22;45.99;102094.13;4194523;28;20434;-52
2021/12/05 02:43:24;;;;;;;6.03;2.17;;;;;;;19.22;46.14;102111.63;4180432;28;20037;-52
2021/12/05 02:45:25;;;;;;;5.53;2.67;;;;;;;19.22;45.95;102105.25;4188461;28;20113;-53
2021/12/05 02:47:28;;;;;;;3.95;2.17;;;;;;;19.17;46.07;102103.19;4184839;28;20041;-56
2021/12/05 02:49:32;;;;;;;5.60;2.72;;;;;;;19.19;45.60;102103.78;4181753;28;20041;-50
2021/12/05 02:51:34;;;;;;;6.63;2.90;;;;;;;19.21;46.04;102107.19;4181784;28;20541;-55
2021/12/05 02:53:42;;;;;;;3.88;2.35;;;;;;;19.21;45.84;102101.63;4184042;28;20048;-50
2021/12/05 02:55:45;;;;;;;6.63;2.55;;;;;;;19.21;46.07;102103.56;4188292;28;20479;-54
2021/12/05 02:57:58;;;;;;;5.07;2.72;;;;;;;19.21;45.54;102107.19;4193883;28;20106;-52
2021/12/05 03:00:07;;;;;;;4.05;2.50;;;;;;;19.23;45.98;102104.16;4191375;28;20101;-53
2021/12/05 03:02:14;;;;;;;4.03;2.40;;;;;;;19.22;46.14;102114.41;4193557;28;20484;-52
2021/12/05 03:04:16;;;;;;;4.82;3.22;;;;;;;19.22;46.14;102114.41;4194413;28;20488;-52
2021/12/05 03:06:23;;;;;;;3.72;2.42;;;;;;;19.22;45.99;102116.34;4194032;28;20040;-59
2021/12/05 03:08:25;;;;;;;5.75;2.80;;;;;;;19.15;45.96;102108.16;4193119;28;20438;-52
2021/12/05 03:10:30;;;;;;;4.97;2.20;;;;;;;19.21;45.76;102134.91;4190344;28;20033;-49
2021/12/05 03:12:34;;;;;;;4.20;2.50;;;;;;;19.21;45.82;102129.38;4189206;28;20074;-52
2021/12/05 03:14:36;;;;;;;5.63;2.83;;;;;;;19.18;45.75;102124.28;4191883;28;20419;-52
2021/12/05 03:16:40;;;;;;;4.22;2.40;;;;;;;19.21;45.64;102117.44;4191951;28;20078;-51
2021/12/05 03:18:42;;;;;;;5.05;2.88;;;;;;;19.22;45.90;102125.50;4185362;28;20028;-53
2021/12/05 03:20:43;;;;;;;5.55;3.00;;;;;;;19.21;45.55;102121.06;4189786;28;20168;-51
2021/12/05 03:22:45;;;;;;;6.90;3.25;;;;;;;19.22;45.92;102119.13;4183184;28;20045;-53
2021/12/05 03:24:48;;;;;;;5.10;2.53;;;;;;;19.21;45.60;102118.28;4190451;28;20041;-53
2021/12/05 03:26:52;;;;;;;4.03;2.67;;;;;;;19.21;45.83;102117.44;4190047;28;20048;-53
2021/12/05 03:28:57;;;;;;;5.82;2.80;;;;;;;19.16;45.96;102120.94;4192260;28;20048;-51
2021/12/05 03:31:00;;;;;;;6.68;3.20;;;;;;;19.22;45.59;102128.28;4193526;28;20079;-51
2021/12/05 03:33:01;;;;;;;6.93;3.00;;;;;;;19.21;46.03;102134.91;4194192;28;20037;-51
2021/12/05 03:35:06;;;;;;;9.13;3.00;;;;;;;19.20;45.79;102127.69;4194129;28;20446;-51
2021/12/05 03:37:08;;;;;;;8.88;4.00;;;;;;;19.20;45.67;102122.16;4191118;28;20487;-50
2021/12/05 03:39:11;;;;;;;6.43;3.30;;;;;;;19.21;45.51;102129.38;4185352;28;20045;-51
2021/12/05 03:41:13;;;;;;;4.78;3.00;;;;;;;19.22;45.70;102136.59;4180354;28;20182;-51
2021/12/05 03:43:17;;;;;;;7.07;3.95;;;;;;;19.22;46.04;102135.75;4189542;28;20409;-53
2021/12/05 03:45:23;;;;;;;6.43;3.22;;;;;;;19.21;45.72;102129.38;4190631;28;20086;-54
2021/12/05 03:47:28;;;;;;;13.73;3.88;;;;;;;19.22;45.68;102139.38;4187528;28;20536;-53
2021/12/05 03:49:30;;;;;;;6.05;4.07;;;;;;;19.21;45.76;102146.03;4185278;28;20393;-53
2021/12/05 03:51:35;;;;;;;7.93;3.70;;;;;;;19.21;45.63;102148.81;4183532;28;20065;-53
2021/12/05 03:53:37;;;;;;;5.97;3.60;;;;;;;19.21;45.77;102150.72;4189389;28;20037;-53
2021/12/05 03:55:44;;;;;;;5.53;3.47;;;;;;;19.20;45.94;102161.00;4183134;28;20033;-50
2021/12/05 03:57:45;;;;;;;8.20;3.97;;;;;;;19.20;45.63;102161.00;4189133;28;20102;-53
2021/12/05 03:59:47;;;;;;;7.97;4.40;;;;;;;19.20;45.63;102166.53;4182693;28;20037;-53
2021/12/05 04:01:49;;;;;;;7.43;4.22;;;;;;;19.17;45.97;102155.91;4186638;28;20048;-52
2021/12/05 04:03:51;;;;;;;8.80;4.68;;;;;;;19.12;45.71;102161.34;4183303;28;20037;-54
2021/12/05 04:05:53;;;;;;;9.43;4.32;;;;;;;19.16;46.07;102170.88;4183036;28;20041;-53
2021/12/05 04:07:54;;;;;;;9.63;4.10;;;;;;;19.15;45.89;102160.00;4184459;28;20033;-52
2021/12/05 04:09:55;;;;;;;10.38;4.65;;;;;;;19.12;45.79;102164.09;4184650;28;20102;-52
2021/12/05 04:12:01;;;;;;;9.77;4.90;;;;;;;19.17;45.80;102180.03;4184943;28;20082;-51
2021/12/05 04:14:11;;;;;;;8.77;3.95;;;;;;;19.16;45.81;102181.97;4182585;28;20040;-50
2021/12/05 04:16:15;;;;;;;10.05;4.82;;;;;;;19.14;45.81;102188.84;4186116;28;20029;-53
2021/12/05 04:18:17;;;;;;;6.37;4.37;;;;;;;19.16;45.52;102193.06;4195586;28;20074;-54
2021/12/05 04:20:20;;;;;;;13.32;4.65;;;;;;;19.16;45.78;102198.63;4187727;28;20273;-53
2021/12/05 04:22:21;;;;;;;9.30;4.65;;;;;;;19.13;45.69;102190.75;4188574;28;20036;-51
2021/12/05 04:24:23;;;;;;;6.88;3.90;;;;;;;19.17;45.75;102208.63;4185917;28;20534;-53
2021/12/05 04:26:25;;;;;;;8.13;4.60;;;;;;;19.17;46.13;102216.97;4186665;28;20514;-53
2021/12/05 04:28:28;;;;;;;6.07;4.32;;;;;;;19.11;46.04;102212.38;4187990;28;20485;-53
2021/12/05 04:30:29;;;;;;;7.72;4.10;;;;;;;19.13;46.29;102212.97;4187228;28;20487;-51
2021/12/05 04:32:30;;;;;;;9.98;4.63;;;;;;;19.19;46.11;102220.31;4188741;28;20040;-51
2021/12/05 04:34:32;;;;;;;9.85;5.53;;;;;;;19.20;46.03;102226.75;4191492;28;20033;-50
2021/12/05 04:36:34;;;;;;;8.55;4.47;;;;;;;19.21;46.34;102233.97;4195871;28;20075;-54
2021/12/05 04:38:38;;;;;;;10.00;4.65;;;;;;;19.09;46.58;102214.53;4192571;28;20521;-54
2021/12/05 04:40:40;;;;;;;6.38;4.20;;;;;;;19.21;46.27;102233.97;4183956;28;20107;-52
2021/12/05 04:42:42;;;;;;;7.65;4.53;;;;;;;19.22;46.48;102232.88;4192990;28;20094;-56
2021/12/05 04:44:44;;;;;;;7.60;4.72;;;;;;;19.27;46.37;102244.97;4183740;28;20435;-51
2021/12/05 04:46:49;;;;;;;7.25;4.30;;;;;;;19.24;46.60;102237.13;4198245;28;20074;-51
2021/12/05 04:48:57;;;;;;;8.38;5.07;;;;;;;19.21;46.81;102237.59;4183058;28;20110;-53
2021/12/05 04:50:59;;;;;;;7.82;4.70;;;;;;;19.13;46.54;102232.38;4191509;28;20041;-52
2021/12/05 04:53:01;;;;;;;10.05;4.70;;;;;;;19.33;46.82;102256.19;4196346;28;20044;-54
2021/12/05 04:55:04;;;;;;;10.98;4.18;;;;;;;19.28;46.87;102246.66;4183113;28;20488;-51
2021/12/05 04:57:06;;;;;;;8.45;4.63;;;;;;;19.25;46.67;102236.03;4189414;28;20021;-53
2021/12/05 04:59:13;;;;;;;7.43;4.47;;;;;;;19.38;46.74;102257.19;4190545;28;20082;-52
2021/12/05 05:01:18;;;;;;;10.40;4.53;;;;;;;19.33;46.47;102250.63;4184566;28;20045;-52
2021/12/05 05:03:19;;;;;;;8.82;4.63;;;;;;;19.37;46.54;102254.63;4182665;28;20098;-53
2021/12/05 05:05:22;;;;;;;9.60;5.03;;;;;;;19.44;46.68;102260.94;4182730;28;20025;-52
2021/12/05 05:07:26;;;;;;;7.43;4.10;;;;;;;19.43;46.38;102260.09;4186543;28;20114;-51
2021/12/05 05:09:28;;;;;;;11.02;4.65;;;;;;;19.43;46.63;102264.81;4182734;28;20106;-51
2021/12/05 05:11:30;;;;;;;6.53;3.72;;;;;;;19.49;46.59;102280.50;4190092;28;20032;-52
2021/12/05 05:13:35;;;;;;;6.20;4.18;;;;;;;19.50;46.33;102277.47;4183420;28;20064;-50
2021/12/05 05:15:37;;;;;;;7.22;4.47;;;;;;;19.51;46.32;102283.88;4182947;28;20033;-49
2021/12/05 05:17:39;;;;;;;7.47;4.20;;;;;;;19.52;46.36;102291.13;4191985;28;20072;-50
2021/12/05 05:19:47;;;;;;;7.55;4.75;;;;;;;19.48;46.13;102289.91;4182679;28;20381;-48
2021/12/05 05:29:09;;;;;;;9.38;4.47;;;;;;;19.54;46.26;102288.94;4187164;28;20523;-53
2021/12/05 05:39:21;;;;;;;7.25;3.95;;;;;;;19.59;46.13;102286.28;4199167;28;20097;-50
2021/12/05 05:41:13;;;;;;;8.38;4.25;;;;;;;19.58;46.01;102287.38;4187868;28;20102;-51
2021/12/05 05:50:09;;;;;;;8.82;4.15;;;;;;;19.58;46.11;102281.84;4198532;28;20512;-51
2021/12/05 05:52:12;;;;;;;8.52;3.83;;;;;;;19.55;46.16;102279.53;4198125;28;20037;-51
2021/12/05 05:54:14;;;;;;;9.73;4.43;;;;;;;19.62;46.10;102291.41;4197863;28;20040;-54
2021/12/05 05:56:21;;;;;;;6.43;4.03;;;;;;;19.55;46.40;102272.03;4198450;28;20036;-51
2021/12/05 05:58:37;;;;;;;6.35;4.25;;;;;;;19.63;46.10;102286.69;4192235;28;20044;-53
2021/12/05 06:01:03;;;;;;;6.18;3.83;;;;;;;19.63;46.42;102276.44;4197785;28;20552;-53
2021/12/05 06:03:21;;;;;;;5.75;3.80;;;;;;;19.66;46.45;102284.28;4197976;28;20048;-55
2021/12/05 06:05:22;;;;;;;9.77;4.28;;;;;;;19.67;46.05;102285.13;4197405;28;20090;-52
2021/12/05 06:07:25;;;;;;;5.03;4.00;;;;;;;19.69;46.38;102289.34;4197497;28;20032;-54
2021/12/05 06:09:27;;;;;;;6.63;4.30;;;;;;;19.69;46.19;102292.13;4197076;28;20086;-55
2021/12/05 06:11:28;;;;;;;7.63;4.07;;;;;;;19.67;45.77;102283.19;4198079;28;20044;-54
2021/12/05 06:13:31;;;;;;;6.57;4.32;;;;;;;19.64;45.89;102286.44;4194212;28;20056;-54
2021/12/05 06:15:32;;;;;;;5.80;3.97;;;;;;;19.66;46.26;102286.22;4186721;28;20040;-51
2021/12/05 06:17:34;;;;;;;6.65;3.83;;;;;;;19.66;46.22;102298.19;4197970;28;20036;-52
2021/12/05 06:19:36;;;;;;;4.88;3.95;;;;;;;19.66;46.29;102292.63;4198092;28;20090;-50
2021/12/05 06:21:37;;;;;;;8.00;4.82;;;;;;;19.68;45.89;102296.00;4197644;28;20036;-52
2021/12/05 06:23:39;;;;;;;6.70;4.15;;;;;;;19.69;45.92;102300.47;4197012;28;20410;-54
2021/12/05 06:25:44;;;;;;;6.53;4.20;;;;;;;19.55;46.14;102285.06;4196776;28;20052;-53
2021/12/05 06:27:51;;;;;;;6.05;3.95;;;;;;;19.70;45.80;102304.94;4197253;28;20537;-53
2021/12/05 06:30:03;;;;;;;7.43;4.70;;;;;;;19.70;45.96;102310.50;4197277;28;20085;-54
2021/12/05 06:37:33;;;;;;;7.05;4.00;;;;;;;19.74;45.87;102321.97;4174281;28;20122;-52
2021/12/05 06:39:59;;;;;;;8.18;4.57;;;;;;;19.77;45.85;102332.59;4182218;28;20076;-52
2021/12/05 06:46:40;;;;;;;8.23;3.80;;;;;;;19.83;45.57;102348.28;4180153;28;20078;-53
2021/12/05 06:48:43;;;;;;;8.27;4.47;;;;;;;19.80;45.88;102355.19;4185919;28;20424;-49
2021/12/05 06:50:44;;;;;;;6.13;4.07;;;;;;;19.79;45.73;102363.75;4180407;28;20110;-51
2021/12/05 06:52:46;;;;;;;6.22;3.80;;;;;;;19.71;45.67;102348.28;4180916;28;20033;-50
2021/12/05 06:54:51;;;;;;;6.30;4.07;;;;;;;19.78;45.75;102373.16;4180429;28;20087;-53
2021/12/05 06:56:52;;;;;;;5.07;3.38;;;;;;;19.77;45.86;102372.31;4180514;28;20556;-50
2021/12/05 06:58:55;;;;;;;5.97;4.20;;;;;;;19.76;45.94;102370.66;4180761;28;20121;-52
2021/12/05 07:00:57;;;;;;;7.88;4.03;;;;;;;19.76;45.74;102376.19;4180673;28;20476;-48
2021/12/05 07:02:59;;;;;;;7.75;4.53;;;;;;;19.76;45.60;102370.66;4180919;28;20087;-52
2021/12/05 07:05:21;;;;;;;6.93;3.83;;;;;;;19.77;45.50;102365.94;4183887;28;20033;-53
2021/12/05 07:07:26;;;;;;;6.35;4.00;;;;;;;19.74;45.48;102364.47;4191149;28;20045;-54
2021/12/05 07:09:28;;;;;;;6.18;4.00;;;;;;;19.67;45.50;102363.75;4192011;28;20113;-52
2021/12/05 07:11:42;;;;;;;6.38;3.40;;;;;;;19.78;45.62;102387.06;4192927;28;20082;-52
2021/12/05 07:20:53;;;;;;;5.03;3.47;;;;;;;19.79;45.69;102403.50;4189903;28;20386;-53
2021/12/05 07:23:28;;;;;;;7.47;3.55;;;;;;;19.75;45.53;102393.94;4192719;28;20016;-52
2021/12/05 07:25:42;;;;;;;6.53;4.05;;;;;;;19.81;45.10;102411.59;4191609;28;20045;-52
2021/12/05 07:41:49;;;;;;;5.30;3.65;;;;;;;19.78;45.35;102451.78;4181438;28;20099;-53
2021/12/05 07:43:50;;;;;;;5.28;3.55;;;;;;;19.78;45.31;102448.16;4188371;28;20037;-55
2021/12/05 07:45:59;;;;;;;5.60;3.70;;;;;;;19.76;45.29;102448.41;4183621;28;20025;-57
2021/12/05 07:48:15;;;;;;;4.10;3.13;;;;;;;19.78;45.04;102456.50;4179550;28;20103;-50
2021/12/05 07:50:17;;;;;;;;;;;;;;;19.76;45.14;102469.78;4182526;28;20040;-50
2021/12/05 07:52:23;;;;;;;5.63;3.38;;;;;;;19.66;44.73;102437.03;4183993;28;20379;-53
2021/12/05 07:54:43;;;;;;;4.50;3.15;;;;;;;19.83;45.05;102475.22;4188335;28;20037;-54
2021/12/05 07:56:59;;;;;;;5.65;3.53;;;;;;;19.83;45.12;102476.06;4196714;28;20536;-53
2021/12/05 08:15:45;;;;;;;4.80;3.28;;;;;;;19.61;44.84;102450.78;4187033;28;20069;-53
2021/12/05 08:17:54;;;;;;;5.32;3.25;;;;;;;19.75;44.91;102474.50;4186664;28;20045;-51
2021/12/05 08:19:55;;;;;;;5.47;3.63;;;;;;;19.74;44.89;102483.91;4187554;28;20106;-52
2021/12/05 08:21:57;;;;;;;4.90;3.30;;;;;;;19.71;45.00;102483.53;4188743;28;20476;-54
2021/12/05 08:23:59;;;;;;;4.20;3.25;;;;;;;19.73;45.16;102490.53;4186591;28;20033;-52
2021/12/05 08:26:08;;;;;;;4.60;2.90;;;;;;;19.72;44.91;102479.69;4186335;28;20041;-52
2021/12/05 08:30:27;;;;;;;4.47;3.03;;;;;;;19.69;44.92;102478.19;4195183;28;20106;-50
2021/12/05 08:32:38;;;;;;;5.47;3.53;;;;;;;19.70;45.20;102481.81;4192661;28;20075;-53
2021/12/05 08:37:40;;;;;;;3.67;3.22;;;;;;;19.72;44.78;102493.56;4190373;28;20098;-53
2021/12/05 08:40:27;;;;;;;4.45;3.15;;;;;;;19.72;45.13;102483.28;4182792;28;20025;-53
2021/12/05 08:43:20;;;;;;;5.13;3.42;;;;;;;19.66;44.72;102475.91;4185948;28;20067;-51
2021/12/05 09:23:17;;;;;;;3.40;2.70;;;;;;;19.56;44.95;102497.78;4192785;28;20025;-52
2021/12/05 09:38:56;;;;;;;5.07;2.70;;;;;;;19.53;45.20;102514.94;4188244;28;20530;-53
2021/12/05 10:01:57;;;;;;;3.08;2.63;;;;;;;19.54;44.82;102538.84;4183913;28;20078;-53
2021/12/05 10:08:51;;;;;;;3.28;2.33;;;;;;;19.68;44.56;102568.16;4189410;28;20094;-50
2021/12/05 10:15:33;;;;;;;3.40;2.20;;;;;;;19.69;44.10;102580.97;4193730;28;20414;-52
2021/12/05 10:18:07;;;;;;;3.35;2.03;;;;;;;19.76;43.98;102581.75;4197752;28;20094;-51
2021/12/05 10:20:26;;;;;;;2.10;1.80;;;;;;;19.80;43.93;102588.53;4191772;28;20033;-50
2021/12/05 10:35:53;;;;;;;2.25;2.05;;;;;;;19.87;43.65;102609.81;4182408;28;20114;-51
2021/12/05 10:38:06;;;;;;;2.58;2.10;;;;;;;19.87;43.59;102605.09;4181245;28;20477;-51
2021/12/05 10:40:18;;;;;;;3.05;2.05;;;;;;;19.90;43.29;102612.13;4181985;28;20041;-54
2021/12/05 10:42:37;;;;;;;2.85;2.00;;;;;;;19.89;43.41;102607.66;4180917;28;20090;-52
2021/12/05 10:44:45;;;;;;;2.30;1.67;;;;;;;19.86;43.43;102605.34;4188740;28;20094;-52
2021/12/05 10:46:49;;;;;;;2.63;2.00;;;;;;;19.89;43.51;102624.34;4196245;28;20208;-51
2021/12/05 10:49:03;;;;;;;2.28;2.00;;;;;;;19.88;43.67;102629.00;4196046;28;20040;-52
2021/12/05 10:51:08;;;;;;;2.30;1.70;;;;;;;19.88;43.25;102633.72;4196980;28;20544;-53
2021/12/05 10:53:27;;;;;;;;;;;;;;;19.85;43.72;102640.59;4196326;28;20048;-52
2021/12/05 10:55:29;;;;;;;2.35;1.92;;;;;;;19.93;43.61;102636.66;4194453;28;19920;-55
2021/12/05 10:57:31;;;;;;;2.13;1.63;;;;;;;19.92;43.65;102640.50;4194957;28;20101;-55
2021/12/05 10:59:37;;;;;;;2.30;1.70;;;;;;;19.89;43.23;102649.34;4196326;28;20036;-55
2021/12/05 11:01:48;;;;;;;2.47;2.05;;;;;;;19.88;43.39;102642.91;4196566;28;20040;-54
2021/12/05 11:03:53;;;;;;;2.60;1.90;;;;;;;19.88;43.81;102650.38;4193363;28;20094;-50
2021/12/05 11:05:55;;;;;;;2.28;1.77;;;;;;;19.88;43.82;102644.84;4195585;28;20102;-51
2021/12/05 11:07:56;;;;;;;2.17;1.60;;;;;;;19.88;43.50;102651.25;4184855;28;20095;-51
2021/12/05 11:09:59;;;;;;;2.22;1.73;;;;;;;19.89;43.80;102638.22;4184996;28;20033;-54
2021/12/05 11:12:22;;;;;;;3.22;1.33;;;;;;;19.87;43.33;102652.31;4184487;28;20107;-52
2021/12/05 11:14:29;;;;;;;2.42;1.75;;;;;;;19.89;43.66;102652.97;4184693;28;20407;-53
2021/12/05 11:16:32;;;;;;;1.98;1.65;;;;;;;19.89;43.65;102658.50;4193762;28;20406;-52
2021/12/05 11:18:42;;;;;;;2.00;1.48;;;;;;;19.88;43.54;102651.25;4194472;28;20118;-50
2021/12/05 11:20:45;;;;;;;1.45;1.35;;;;;;;19.92;43.48;102654.41;4181200;28;20037;-54
2021/12/05 11:22:51;;;;;;;2.38;1.70;;;;;;;19.79;43.68;102634.06;4196549;28;20049;-51
2021/12/05 11:25:10;;;;;;;3.20;1.83;;;;;;;19.90;43.48;102668.53;4184512;28;20037;-53
2021/12/05 11:27:18;;;;;;;2.33;1.70;;;;;;;19.92;43.64;102660.81;4185701;28;20103;-55
2021/12/05 11:29:22;;;;;;;2.10;1.40;;;;;;;19.96;43.49;102663.97;4180792;28;20053;-53
2021/12/05 11:31:29;;;;;;;2.20;1.77;;;;;;;19.93;43.53;102656.09;4181995;28;20118;-56
2021/12/05 11:33:43;;;;;;;1.70;1.60;;;;;;;19.89;43.78;102657.66;4192026;28;20028;-54
2021/12/05 11:35:58;;;;;;;2.50;1.88;;;;;;;19.94;43.39;102669.78;4193477;28;20103;-49
2021/12/05 11:38:02;;;;;;;2.13;1.70;;;;;;;19.96;43.51;102675.09;4189709;28;20075;-53
2021/12/05 11:40:06;;;;;;;2.50;1.70;;;;;;;19.96;43.28;102666.75;4185513;28;20484;-54
2021/12/05 11:42:20;;;;;;;2.05;1.83;;;;;;;19.93;43.38;102670.00;4186395;28;20041;-52
2021/12/05 11:44:25;;;;;;;2.22;1.30;;;;;;;19.86;43.55;102649.78;4180877;28;20025;-53
2021/12/05 11:46:33;;;;;;;2.13;1.73;;;;;;;19.94;43.19;102672.56;4188911;28;20033;-51
2021/12/05 11:48:46;;;;;;;1.92;1.38;;;;;;;19.96;43.50;102675.94;4186459;28;20036;-50
2021/12/05 11:50:48;;;;;;;2.35;1.55;;;;;;;19.98;43.40;102678.50;4190865;28;20037;-53
2021/12/05 11:52:50;;;;;;;1.75;1.60;;;;;;;19.95;43.45;102673.41;4180184;28;20086;-51
2021/12/05 11:54:51;;;;;;;2.20;1.52;;;;;;;19.96;43.46;102675.94;4187438;28;20044;-51
2021/12/05 11:57:17;;;;;;;1.85;1.42;;;;;;;19.93;43.22;102681.09;4196083;28;20053;-51
2021/12/05 11:59:21;;;;;;;;;;;;;;;19.94;43.41;102683.66;4185065;28;20541;-53
2021/12/05 12:01:22;;;;;;;2.13;1.58;;;;;;;20.00;42.96;102681.88;4184613;28;20433;-53
2021/12/05 12:03:35;;;;;;;2.63;1.42;;;;;;;19.98;42.94;102687.69;4184743;28;20519;-52
2021/12/05 12:05:37;;;;;;;1.98;1.35;;;;;;;19.98;42.96;102698.81;4186655;28;20028;-54
2021/12/05 12:08:00;;;;;;;1.73;1.63;;;;;;;19.96;43.19;102697.31;4186131;28;20048;-52
2021/12/05 12:10:07;;;;;;;1.77;1.52;;;;;;;19.98;42.87;102706.28;4189008;28;20049;-53
2021/12/05 12:12:12;;;;;;;2.72;1.60;;;;;;;19.98;43.00;102711.84;4187386;28;20446;-52
2021/12/05 12:14:14;;;;;;;2.13;1.50;;;;;;;19.93;43.20;102708.88;4187071;28;20032;-52
2021/12/05 12:16:19;;;;;;;2.45;1.70;;;;;;;19.95;43.12;102717.84;4191878;28;20102;-50
2021/12/05 12:18:30;;;;;;;;;;;;;;;19.94;43.15;102718.94;4192153;28;20044;-51
2021/12/05 12:20:33;;;;;;;2.08;1.50;;;;;;;19.98;43.03;102722.97;4191391;28;19920;-54
2021/12/05 12:22:35;;;;;;;3.35;1.50;;;;;;;20.00;42.88;102732.75;4190683;28;20029;-51
2021/12/05 12:24:39;;;;;;;2.58;1.67;;;;;;;19.97;42.79;102732.34;4185603;28;20079;-53
2021/12/05 12:26:41;;;;;;;1.95;1.73;;;;;;;19.96;43.20;102731.50;4180322;28;20119;-52
2021/12/05 12:28:43;;;;;;;1.52;1.23;;;;;;;19.79;43.24;102713.75;4192608;28;20511;-55
2021/12/05 12:30:52;;;;;;;2.85;1.65;;;;;;;19.94;42.97;102750.34;4188184;28;20025;-51
2021/12/05 12:33:04;;;;;;;2.47;1.50;;;;;;;19.93;43.01;102745.00;4185159;28;20099;-51
2021/12/05 12:35:10;;;;;;;1.50;1.40;;;;;;;19.93;43.06;102739.44;4193777;28;20487;-51
2021/12/05 12:37:14;;;;;;;1.63;1.30;;;;;;;19.85;43.41;102728.66;4184308;28;20364;-54
2021/12/05 12:39:15;;;;;;;1.85;1.40;;;;;;;19.93;42.88;102747.78;4186783;28;20041;-49
2021/12/05 12:41:23;;;;;;;1.95;1.52;;;;;;;19.90;42.74;102737.16;4192002;28;20049;-51
2021/12/05 12:43:42;;;;;;;2.15;1.60;;;;;;;19.88;43.30;102734.59;4207408;28;20515;-50
2021/12/05 12:45:44;;;;;;;2.00;1.38;;;;;;;19.92;43.21;102746.09;4183143;28;20106;-52
2021/12/05 12:47:54;;;;;;;2.22;1.90;;;;;;;19.91;42.88;102738.84;4185673;28;20048;-51
2021/12/05 12:49:55;;;;;;;2.10;1.50;;;;;;;19.85;43.21;102734.22;4190301;28;20045;-51
2021/12/05 12:52:07;;;;;;;1.88;1.58;;;;;;;19.88;43.21;102751.25;4185282;28;20106;-52
2021/12/05 12:54:15;;;;;;;2.38;1.55;;;;;;;19.88;42.93;102744.84;4193031;28;20549;-51
2021/12/05 12:56:22;;;;;;;1.80;1.50;;;;;;;19.87;43.32;102754.28;4196467;28;20090;-54
2021/12/05 12:58:50;;;;;;;2.20;1.60;;;;;;;19.71;42.87;102745.47;4191719;28;20044;-52
2021/12/05 13:00:51;;;;;;;1.67;1.17;;;;;;;19.89;43.02;102774.38;4191891;28;20036;-51
2021/12/05 13:03:01;;;;;;;2.10;1.63;;;;;;;19.88;42.92;102781.81;4194664;28;20045;-54
2021/12/05 13:05:21;;;;;;;2.38;1.48;;;;;;;19.87;43.26;102782.06;4190837;28;20044;-53
2021/12/05 13:10:05;;;;;;;3.30;2.00;;;;;;;19.88;43.07;102789.31;4190463;28;20091;-48
2021/12/05 13:12:06;;;;;;;2.25;1.70;;;;;;;19.87;43.56;102788.47;4195949;28;20085;-51
2021/12/05 13:14:08;;;;;;;1.58;1.48;;;;;;;19.83;43.52;102797.47;4195009;28;20032;-52
2021/12/05 13:16:26;;;;;;;2.20;1.70;;;;;;;19.84;43.27;102805.59;4197668;28;20048;-51
2021/12/05 13:18:34;;;;;;;1.55;1.45;;;;;;;19.85;43.37;102806.47;4194565;28;20436;-48
2021/12/05 13:20:42;;;;;;;2.00;1.50;;;;;;;19.85;43.44;102809.22;4183397;28;20044;-50
2021/12/05 13:23:06;;;;;;;2.28;1.73;;;;;;;19.82;43.59;102809.69;4189635;28;20048;-53
2021/12/05 13:25:10;;;;;;;1.88;1.65;;;;;;;19.83;43.60;102811.38;4184354;28;20474;-52
2021/12/05 13:27:31;;;;;;;1.75;1.40;;;;;;;19.82;43.93;102815.25;4184300;28;20044;-50
2021/12/05 13:29:36;;;;;;;1.92;1.60;;;;;;;19.78;43.87;102806.50;4186461;28;20122;-53
2021/12/05 13:31:46;;;;;;;2.25;1.70;;;;;;;19.82;43.64;102818.00;4182985;28;20106;-53
2021/12/05 13:33:48;;;;;;;1.67;1.52;;;;;;;19.82;43.81;102818.00;4194212;28;20098;-51
2021/12/05 13:35:53;;;;;;;2.78;1.83;;;;;;;19.79;43.78;102814.63;4183198;28;20105;-53
2021/12/05 13:37:56;;;;;;;1.50;1.33;;;;;;;19.77;43.89;102810.38;4188126;28;20045;-50
2021/12/05 13:40:10;;;;;;;2.03;1.48;;;;;;;19.76;44.08;102815.06;4198515;28;20421;-48
2021/12/05 13:42:43;;;;;;;3.33;1.77;;;;;;;19.75;44.35;102824.50;4184422;28;20442;-52
2021/12/05 13:45:03;;;;;;;2.97;1.67;;;;;;;19.73;44.14;102823.84;4183058;28;20102;-51
2021/12/05 13:47:18;;;;;;;2.00;1.80;;;;;;;19.26;44.63;102747.56;4182811;28;20059;-53
2021/12/05 13:49:36;;;;;;;1.80;1.63;;;;;;;19.68;44.39;102820.91;4196008;28;20093;-51
2021/12/05 13:51:38;;;;;;;2.90;1.73;;;;;;;19.69;44.45;102830.94;4196160;28;20094;-53
2021/12/05 13:53:49;;;;;;;2.70;1.70;;;;;;;19.47;44.85;102793.50;4197007;28;20090;-50
2021/12/05 13:55:53;;;;;;;1.75;1.60;;;;;;;19.67;44.59;102830.31;4196470;28;20040;-52
2021/12/05 13:58:20;;;;;;;2.88;1.98;;;;;;;19.66;45.01;102836.13;4192375;28;20449;-51
2021/12/05 14:00:42;;;;;;;2.33;1.60;;;;;;;19.66;44.93;102834.19;4180921;28;20045;-52
2021/12/05 14:02:53;;;;;;;2.85;1.70;;;;;;;19.65;45.09;102846.34;4192876;28;20196;-53
2021/12/05 14:04:54;;;;;;;2.42;1.40;;;;;;;19.65;44.82;102846.34;4181281;28;20041;-51
2021/12/05 14:07:02;;;;;;;2.05;1.70;;;;;;;19.63;45.10;102844.91;4191504;28;20090;-49
2021/12/05 14:09:08;;;;;;;1.70;1.33;;;;;;;19.61;44.72;102847.91;4185815;28;20099;-51
2021/12/05 14:11:11;;;;;;;3.67;1.70;;;;;;;19.60;44.86;102854.50;4185144;28;20446;-52
2021/12/05 14:13:12;;;;;;;2.20;1.73;;;;;;;19.58;45.02;102853.88;4184569;28;20092;-53
2021/12/05 14:15:15;;;;;;;1.88;1.60;;;;;;;19.57;44.94;102860.50;4184205;28;20102;-54
2021/12/05 14:17:27;;;;;;;4.93;1.80;;;;;;;19.56;44.88;102856.00;4191329;28;20099;-53
2021/12/05 14:19:32;;;;;;;3.08;1.90;;;;;;;19.56;44.88;102861.56;4180694;28;20512;-52
2021/12/05 14:21:37;;;;;;;;;;;;;;;19.55;44.96;102862.66;4189844;28;20079;-52
2021/12/05 14:23:39;;;;;;;2.67;1.63;;;;;;;19.54;44.68;102847.06;4194627;28;19920;-53
2021/12/05 14:25:40;;;;;;;2.78;1.92;;;;;;;19.64;44.70;102861.31;4186365;28;20044;-53
2021/12/05 14:27:58;;;;;;;4.90;1.85;;;;;;;19.62;44.61;102862.63;4189590;28;20098;-50
2021/12/05 14:30:00;;;;;;;4.75;1.95;;;;;;;19.64;44.65;102861.31;4180727;28;20140;-52
2021/12/05 14:32:18;;;;;;;4.97;1.95;;;;;;;19.61;45.10;102872.03;4190574;28;20040;-52
2021/12/05 14:34:23;;;;;;;4.07;2.03;;;;;;;19.62;44.67;102863.50;4190453;28;20075;-53
2021/12/05 14:36:28;;;;;;;5.05;2.13;;;;;;;19.63;44.90;102870.75;4190323;28;20082;-54
2021/12/05 14:38:29;;;;;;;7.75;2.17;;;;;;;19.64;44.83;102872.44;4190775;28;20028;-55
2021/12/05 14:40:34;;;;;;;6.25;2.67;;;;;;;19.65;44.57;102871.34;4182508;28;20040;-51
2021/12/05 14:42:38;;;;;;;2.77;2.00;;;;;;;19.66;44.50;102866.66;4189707;28;20102;-53
2021/12/05 14:44:40;;;;;;;4.75;1.90;;;;;;;19.57;44.74;102860.50;4190013;28;20328;-54
2021/12/05 14:47:12;;;;;;;3.80;1.70;;;;;;;19.66;44.60;102881.41;4180935;28;20503;-50
2021/12/05 14:49:15;;;;;;;5.32;2.42;;;;;;;19.67;44.32;102877.53;4193103;28;20094;-53
2021/12/05 14:51:16;;;;;;;5.00;2.05;;;;;;;19.67;44.36;102872.00;4180773;28;20448;-54